Time;durP1;ratioP1;P1;durP2;ratioP2;P2;SDS_P1;SDS_P2;PMS_P1;PMS_P2;Temp;Humidity;BMP_temperature;BMP_pressure;BME280_temperature;BME280_humidity;BME280_pressure;Samples;Min_cycle;Max_cycle;Signal;HPM_P1;HPM_P2
2022/03/25 00:00:54;;;;;;;6.63;3.63;;;;;3.80;97705.00;;;;5089832;28;20928;-85
2022/03/25 00:03:43;;;;;;;7.03;4.00;;;;;3.90;97713.00;;;;5084887;28;20994;-86
2022/03/25 00:06:33;;;;;;;6.20;4.80;;;;;4.10;97717.00;;;;5076340;28;20427;-85
2022/03/25 00:09:22;;;;;;;6.43;4.30;;;;;3.90;97705.00;;;;5070246;28;20948;-86
2022/03/25 00:12:11;;;;;;;11.17;4.67;;;;;3.70;97710.00;;;;5070522;28;20959;-85
2022/03/25 00:15:01;;;;;;;9.83;4.93;;;;;3.80;97717.00;;;;5070950;28;20430;-86
2022/03/25 00:17:50;;;;;;;6.13;4.80;;;;;3.60;97709.00;;;;5069505;28;20458;-86
2022/03/25 00:20:39;;;;;;;6.37;5.23;;;;;3.20;97708.00;;;;5082479;28;20418;-87
2022/03/25 00:23:30;;;;;;;6.47;4.80;;;;;2.50;97700.00;;;;5089919;28;21087;-86
2022/03/25 00:26:19;;;;;;;5.73;3.77;;;;;2.10;97703.00;;;;5090999;28;20429;-86
2022/03/25 00:29:08;;;;;;;7.53;5.03;;;;;2.90;97702.00;;;;5085871;28;20453;-87
2022/03/25 00:31:57;;;;;;;7.83;4.63;;;;;2.70;97691.00;;;;5072135;28;20434;-85
2022/03/25 00:34:46;;;;;;;6.83;4.57;;;;;3.00;97702.00;;;;5074669;28;20403;-85
2022/03/25 00:37:35;;;;;;;8.50;5.00;;;;;2.90;97702.00;;;;5074427;28;20851;-85
2022/03/25 00:40:26;;;;;;;7.50;4.67;;;;;3.00;97704.00;;;;5086749;28;20457;-85
2022/03/25 00:43:15;;;;;;;6.97;5.30;;;;;2.90;97695.00;;;;5076215;28;20417;-87
2022/03/25 00:46:05;;;;;;;5.03;4.30;;;;;2.70;97696.00;;;;5073984;28;20426;-85
2022/03/25 00:48:55;;;;;;;6.27;4.10;;;;;2.60;97698.00;;;;5074120;28;20511;-85
2022/03/25 00:51:46;;;;;;;7.97;5.30;;;;;2.80;97694.00;;;;5074231;28;20433;-86
2022/03/25 00:54:36;;;;;;;5.50;4.30;;;;;3.00;97690.00;;;;5088541;28;20476;-85
2022/03/25 00:57:27;;;;;;;4.67;3.80;;;;;2.90;97698.00;;;;5073679;28;20442;-87
2022/03/25 01:00:16;;;;;;;5.70;4.20;;;;;2.70;97697.00;;;;5076899;28;20843;-86
2022/03/25 01:03:05;;;;;;;6.03;4.83;;;;;2.60;97694.00;;;;5083138;28;20482;-85
2022/03/25 01:05:54;;;;;;;7.30;5.80;;;;;2.80;97701.00;;;;5086335;28;20453;-86
2022/03/25 01:08:43;;;;;;;5.83;4.40;;;;;3.00;97698.00;;;;5087148;28;20442;-86
2022/03/25 01:11:35;;;;;;;7.33;4.43;;;;;2.80;97688.00;;;;5077080;28;20955;-85
2022/03/25 01:14:27;;;;;;;5.83;4.60;;;;;2.50;97687.00;;;;5090864;28;20432;-86
2022/03/25 01:17:16;;;;;;;5.20;4.50;;;;;2.80;97684.00;;;;5082815;28;20482;-86
2022/03/25 01:20:06;;;;;;;5.60;4.37;;;;;2.80;97686.00;;;;5089366;28;21180;-86
2022/03/25 01:22:56;;;;;;;8.73;5.13;;;;;2.90;97692.00;;;;5095039;28;20931;-85
2022/03/25 01:25:45;;;;;;;5.33;4.40;;;;;3.10;97690.00;;;;5095916;28;20417;-85
2022/03/25 01:28:34;;;;;;;7.13;4.80;;;;;3.20;97694.00;;;;5088883;28;20462;-85
2022/03/25 01:31:25;;;;;;;4.87;4.37;;;;;3.00;97695.00;;;;5082715;28;20426;-86
2022/03/25 01:34:15;;;;;;;5.60;4.63;;;;;2.80;97698.00;;;;5075451;28;20438;-86
2022/03/25 01:37:05;;;;;;;5.80;4.27;;;;;2.40;97688.00;;;;5075903;28;20837;-86
2022/03/25 01:39:54;;;;;;;9.13;6.13;;;;;1.60;97684.00;;;;5089183;28;20430;-86
2022/03/25 01:42:43;;;;;;;7.37;4.77;;;;;1.60;97690.00;;;;5076636;28;20912;-86
2022/03/25 01:45:34;;;;;;;5.10;4.40;;;;;1.80;97683.00;;;;5087235;28;20961;-85
2022/03/25 01:48:25;;;;;;;9.67;4.53;;;;;2.00;97681.00;;;;5088963;28;20453;-86
2022/03/25 01:51:17;;;;;;;6.27;4.13;;;;;2.10;97685.00;;;;5082221;28;20426;-87
2022/03/25 01:54:08;;;;;;;9.00;5.13;;;;;2.00;97678.00;;;;5080444;28;20433;-86
2022/03/25 01:57:00;;;;;;;8.53;5.13;;;;;2.00;97677.00;;;;5080220;28;20569;-86
2022/03/25 01:59:49;;;;;;;6.67;4.97;;;;;1.50;97683.00;;;;5090226;28;20494;-85
2022/03/25 02:02:39;;;;;;;7.70;6.27;;;;;1.70;97675.00;;;;5081046;28;20423;-87
2022/03/25 02:05:30;;;;;;;6.47;5.20;;;;;1.60;97673.00;;;;5091775;28;20971;-86
2022/03/25 02:08:20;;;;;;;9.83;5.77;;;;;1.70;97669.00;;;;5089242;28;20480;-85
2022/03/25 02:11:09;;;;;;;9.60;5.33;;;;;1.70;97674.00;;;;5079035;28;20959;-86
2022/03/25 02:13:58;;;;;;;5.80;5.20;;;;;1.80;97666.00;;;;5073124;28;21076;-84
2022/03/25 02:16:49;;;;;;;5.33;4.47;;;;;1.80;97672.00;;;;5073541;28;20438;-84
2022/03/25 02:19:38;;;;;;;7.30;5.37;;;;;1.70;97672.00;;;;5084221;28;20438;-85
2022/03/25 02:22:29;;;;;;;9.13;6.03;;;;;1.70;97682.00;;;;5087109;28;20465;-86
2022/03/25 02:25:20;;;;;;;10.60;5.73;;;;;1.80;97682.00;;;;5086807;28;20422;-84
2022/03/25 02:28:09;;;;;;;8.70;5.00;;;;;1.40;97680.00;;;;5070347;28;20457;-85
2022/03/25 02:30:59;;;;;;;5.77;4.97;;;;;1.80;97681.00;;;;5071462;28;20430;-85
2022/03/25 02:33:48;;;;;;;5.30;4.33;;;;;2.10;97677.00;;;;5081914;28;20500;-85
2022/03/25 02:36:37;;;;;;;6.37;4.83;;;;;1.90;97682.00;;;;5091713;28;20432;-86
2022/03/25 02:39:28;;;;;;;8.30;5.03;;;;;1.50;97683.00;;;;5092098;28;20429;-84
2022/03/25 02:42:17;;;;;;;7.03;5.93;;;;;1.30;97675.00;;;;5091639;28;20603;-86
2022/03/25 02:45:08;;;;;;;10.47;6.70;;;;;1.60;97678.00;;;;5073060;28;20446;-85
2022/03/25 02:47:57;;;;;;;9.43;5.63;;;;;1.20;97674.00;;;;5070774;28;20439;-86
2022/03/25 02:50:46;;;;;;;10.67;5.87;;;;;1.20;97678.00;;;;5071464;28;20430;-86
2022/03/25 02:53:35;;;;;;;9.63;6.10;;;;;1.30;97687.00;;;;5070645;28;20434;-84
2022/03/25 02:56:26;;;;;;;10.70;5.87;;;;;1.30;97682.00;;;;5070538;28;20421;-86
2022/03/25 02:59:15;;;;;;;11.13;6.33;;;;;1.00;97684.00;;;;5071609;28;20514;-85
2022/03/25 03:02:04;;;;;;;10.43;6.33;;;;;0.60;97674.00;;;;5069876;28;21071;-84
2022/03/25 03:04:53;;;;;;;10.07;5.87;;;;;0.50;97673.00;;;;5070618;28;20433;-84
2022/03/25 03:07:42;;;;;;;6.37;4.90;;;;;0.70;97675.00;;;;5070576;28;20446;-85
2022/03/25 03:10:32;;;;;;;9.30;4.97;;;;;0.80;97678.00;;;;5070989;28;20437;-85
2022/03/25 03:13:23;;;;;;;8.37;5.97;;;;;0.90;97679.00;;;;5071499;28;20423;-85
2022/03/25 03:16:12;;;;;;;7.80;5.67;;;;;1.40;97678.00;;;;5071579;28;20472;-85
2022/03/25 03:19:01;;;;;;;8.20;5.00;;;;;1.20;97690.00;;;;5080848;28;20921;-85
2022/03/25 03:21:50;;;;;;;9.93;6.20;;;;;0.90;97679.00;;;;5090689;28;20458;-85
2022/03/25 03:24:39;;;;;;;10.10;7.33;;;;;0.70;97672.00;;;;5090989;28;20426;-86
2022/03/25 03:27:29;;;;;;;9.73;6.07;;;;;1.20;97688.00;;;;5089562;28;20454;-86
2022/03/25 03:30:19;;;;;;;6.50;5.13;;;;;1.20;97679.00;;;;5090353;28;20442;-84
2022/03/25 03:33:08;;;;;;;6.63;5.33;;;;;1.40;97689.00;;;;5089894;28;20417;-86
2022/03/25 03:35:57;;;;;;;12.43;5.80;;;;;1.30;97689.00;;;;5089634;28;20429;-85
2022/03/25 03:38:47;;;;;;;10.43;6.07;;;;;1.30;97682.00;;;;5089943;28;20982;-86
2022/03/25 03:41:36;;;;;;;7.93;5.57;;;;;1.10;97688.00;;;;5089812;28;20473;-85
2022/03/25 03:44:25;;;;;;;8.83;5.53;;;;;0.40;97686.00;;;;5077669;28;20449;-85
2022/03/25 03:47:15;;;;;;;8.50;6.50;;;;;0.60;97684.00;;;;5070543;28;20454;-85
2022/03/25 03:50:05;;;;;;;6.13;4.23;;;;;0.80;97689.00;;;;5081437;28;20437;-85
2022/03/25 03:52:54;;;;;;;5.07;4.43;;;;;1.10;97675.00;;;;5088563;22;20438;-80
2022/03/25 03:55:43;;;;;;;8.87;5.40;;;;;1.20;97689.00;;;;5029824;28;20479;-81
2022/03/25 03:58:32;;;;;;;11.63;5.80;;;;;1.20;97678.00;;;;5032024;28;20477;-80
2022/03/25 04:01:21;;;;;;;8.13;6.67;;;;;1.20;97679.00;;;;5030109;28;20433;-81
2022/03/25 04:04:11;;;;;;;7.13;5.43;;;;;1.30;97683.00;;;;5012761;28;20445;-78
2022/03/25 04:07:01;;;;;;;9.17;6.53;;;;;0.70;97671.00;;;;5012464;28;20436;-80
2022/03/25 04:09:50;;;;;;;6.73;5.90;;;;;0.30;97674.00;;;;5011779;28;20815;-82
2022/03/25 04:12:39;;;;;;;9.50;5.17;;;;;0.40;97674.00;;;;5011637;28;20473;-79
2022/03/25 04:15:28;;;;;;;11.60;6.30;;;;;0.70;97681.00;;;;5011339;28;20437;-82
2022/03/25 04:18:17;;;;;;;9.50;7.60;;;;;0.70;97678.00;;;;5012731;28;20449;-81
2022/03/25 04:21:08;;;;;;;8.20;6.87;;;;;0.80;97678.00;;;;5012233;28;20439;-81
2022/03/25 04:23:57;;;;;;;8.60;5.60;;;;;0.40;97673.00;;;;5000105;28;20440;-81
2022/03/25 04:26:46;;;;;;;7.33;6.00;;;;;0.70;97665.00;;;;5011914;28;20472;-81
2022/03/25 04:29:35;;;;;;;8.67;5.53;;;;;1.00;97682.00;;;;5012222;28;20429;-81
2022/03/25 04:32:24;;;;;;;7.60;6.70;;;;;1.00;97677.00;;;;5006769;28;20480;-80
2022/03/25 04:35:13;;;;;;;10.17;5.17;;;;;0.00;97674.00;;;;5010544;28;20429;-80
2022/03/25 04:38:04;;;;;;;10.03;6.00;;;;;-0.20;97675.00;;;;5008708;28;20446;-80
2022/03/25 04:40:53;;;;;;;10.10;7.00;;;;;-0.20;97669.00;;;;5010356;28;20790;-80
2022/03/25 04:43:42;;;;;;;6.47;5.80;;;;;-0.50;97672.00;;;;5011693;28;20456;-80
2022/03/25 04:46:31;;;;;;;10.27;5.90;;;;;-0.40;97674.00;;;;4998125;28;20417;-80
2022/03/25 04:49:20;;;;;;;10.03;6.07;;;;;-0.40;97677.00;;;;5009249;28;20437;-80
2022/03/25 04:52:09;;;;;;;9.33;6.80;;;;;-0.20;97674.00;;;;5008247;28;21015;-80
2022/03/25 04:54:59;;;;;;;12.07;5.10;;;;;-0.10;97689.00;;;;5009539;28;20455;-80
2022/03/25 04:57:49;;;;;;;8.20;5.67;;;;;-0.30;97682.00;;;;5008289;28;20432;-80
2022/03/25 05:00:38;;;;;;;9.70;7.73;;;;;0.00;97682.00;;;;5007870;28;20429;-79
2022/03/25 05:03:28;;;;;;;11.33;6.47;;;;;0.40;97685.00;;;;5008997;28;20464;-81
2022/03/25 05:06:17;;;;;;;7.40;5.37;;;;;0.40;97698.00;;;;5008588;28;20953;-80
2022/03/25 05:09:06;;;;;;;8.60;6.97;;;;;0.30;97693.00;;;;5008439;28;20461;-79
2022/03/25 05:11:57;;;;;;;10.30;6.83;;;;;-0.10;97694.00;;;;5008137;28;20445;-80
2022/03/25 05:14:46;;;;;;;7.23;6.23;;;;;0.10;97692.00;;;;5009365;28;20421;-79
2022/03/25 05:17:35;;;;;;;14.93;6.97;;;;;0.30;97710.00;;;;4996877;28;20429;-79
2022/03/25 05:20:25;;;;;;;5.03;4.50;;;;;0.30;97710.00;;;;5007804;28;20433;-79
2022/03/25 05:23:14;;;;;;;9.70;6.13;;;;;0.60;97700.00;;;;5008946;28;20992;-79
2022/03/25 05:26:03;;;;;;;9.53;6.97;;;;;0.90;97708.00;;;;5013836;28;20810;-80
2022/03/25 05:28:55;;;;;;;7.23;6.60;;;;;0.70;97697.00;;;;5011528;28;20425;-79
2022/03/25 05:31:44;;;;;;;14.07;8.57;;;;;0.20;97704.00;;;;5011137;28;20449;-80
2022/03/25 05:34:33;;;;;;;9.67;7.57;;;;;-0.40;97700.00;;;;5012545;28;20801;-80
2022/03/25 05:37:24;;;;;;;7.97;6.67;;;;;0.10;97710.00;;;;5011367;28;20449;-80
2022/03/25 05:40:13;;;;;;;8.00;6.77;;;;;0.20;97702.00;;;;5015322;28;20795;-78
2022/03/25 05:43:03;;;;;;;8.80;5.50;;;;;0.10;97706.00;;;;5017940;22;20512;-69
2022/03/25 05:45:53;;;;;;;10.13;6.87;;;;;0.00;97703.00;;;;4991140;28;20438;-69
2022/03/25 05:48:42;;;;;;;10.37;6.93;;;;;0.00;97710.00;;;;4988943;28;20457;-67
2022/03/25 05:51:32;;;;;;;9.07;6.20;;;;;0.20;97711.00;;;;4992554;28;20457;-69
2022/03/25 05:54:21;;;;;;;8.37;6.17;;;;;0.40;97709.00;;;;4992265;28;20465;-69
2022/03/25 05:57:10;;;;;;;6.93;4.97;;;;;0.40;97707.00;;;;5016491;23;20868;-66
2022/03/25 05:59:59;;;;;;;5.37;4.57;;;;;0.40;97720.00;;;;4992149;28;20426;-66
2022/03/25 06:02:50;;;;;;;4.97;4.43;;;;;0.50;97709.00;;;;4990842;28;20438;-66
2022/03/25 06:05:39;;;;;;;19.00;10.37;;;;;0.90;97719.00;;;;4984092;28;20442;-65
2022/03/25 06:08:29;;;;;;;22.47;11.57;;;;;1.10;97717.00;;;;4986571;28;20429;-65
2022/03/25 06:11:18;;;;;;;10.50;8.33;;;;;0.90;97721.00;;;;4984498;28;20431;-66
2022/03/25 06:14:07;;;;;;;12.97;7.50;;;;;1.10;97723.00;;;;4983823;28;20846;-66
2022/03/25 06:16:56;;;;;;;8.10;4.87;;;;;1.00;97709.00;;;;4982922;28;20442;-66
2022/03/25 06:19:46;;;;;;;12.03;8.17;;;;;1.30;97711.00;;;;4984319;28;20457;-66
2022/03/25 06:22:35;;;;;;;10.37;7.07;;;;;1.70;97720.00;;;;4985951;28;20438;-66
2022/03/25 06:25:25;;;;;;;8.30;6.47;;;;;1.90;97716.00;;;;4986902;28;20419;-66
2022/03/25 06:28:14;;;;;;;10.90;6.83;;;;;1.80;97715.00;;;;4982767;28;20515;-66
2022/03/25 06:31:03;;;;;;;12.70;7.63;;;;;2.10;97716.00;;;;4982288;28;20955;-66
2022/03/25 06:33:52;;;;;;;9.47;7.10;;;;;2.20;97725.00;;;;4985777;28;20461;-65
2022/03/25 06:36:42;;;;;;;10.27;6.60;;;;;2.20;97719.00;;;;4985133;28;20832;-66
2022/03/25 06:39:31;;;;;;;10.70;6.17;;;;;2.50;97726.00;;;;4986430;28;20446;-65
2022/03/25 06:42:20;;;;;;;12.87;6.03;;;;;2.60;97725.00;;;;4986970;28;20447;-65
2022/03/25 06:45:11;;;;;;;17.77;8.00;;;;;2.80;97725.00;;;;4990713;28;20422;-66
2022/03/25 06:48:00;;;;;;;13.73;6.50;;;;;3.00;97727.00;;;;4990442;28;20942;-66
2022/03/25 06:50:50;;;;;;;9.23;6.70;;;;;3.60;97724.00;;;;4992124;28;20819;-66
2022/03/25 06:53:41;;;;;;;13.17;8.00;;;;;3.70;97730.00;;;;4992619;28;20470;-66
2022/03/25 06:56:32;;;;;;;18.90;7.57;;;;;4.00;97731.00;;;;4987006;28;20484;-66
2022/03/25 06:59:23;;;;;;;14.03;6.83;;;;;4.60;97739.00;;;;4991679;28;20433;-66
2022/03/25 07:02:15;;;;;;;13.50;7.60;;;;;5.40;97738.00;;;;4989062;28;20450;-66
2022/03/25 07:05:05;;;;;;;12.07;6.13;;;;;5.70;97744.00;;;;4989955;28;20483;-65
2022/03/25 07:07:54;;;;;;;8.80;6.80;;;;;6.00;97746.00;;;;4986110;28;20433;-65
2022/03/25 07:10:45;;;;;;;15.23;7.07;;;;;5.90;97745.00;;;;4987045;28;20453;-66
2022/03/25 07:13:35;;;;;;;10.53;5.70;;;;;6.00;97740.00;;;;4988260;28;20473;-65
2022/03/25 07:16:24;;;;;;;19.07;5.17;;;;;6.50;97747.00;;;;4988348;28;20462;-65
2022/03/25 07:19:13;;;;;;;10.90;6.77;;;;;6.80;97742.00;;;;4986683;28;20430;-65
2022/03/25 07:22:02;;;;;;;13.07;7.10;;;;;6.80;97745.00;;;;4990536;28;20437;-65
2022/03/25 07:24:51;;;;;;;14.73;7.10;;;;;6.80;97743.00;;;;4986926;28;20422;-65
2022/03/25 07:27:42;;;;;;;15.37;7.33;;;;;7.30;97738.00;;;;4990597;28;20238;-66
2022/03/25 07:30:31;;;;;;;9.47;5.93;;;;;7.90;97746.00;;;;4985153;28;20590;-66
2022/03/25 07:33:20;;;;;;;11.50;6.40;;;;;8.20;97743.00;;;;4990783;28;20231;-65
2022/03/25 07:36:09;;;;;;;14.00;6.33;;;;;8.50;97748.00;;;;4990198;28;20245;-65
2022/03/25 07:38:58;;;;;;;9.60;6.43;;;;;8.80;97746.00;;;;4991139;28;20694;-66
2022/03/25 07:41:47;;;;;;;11.50;7.03;;;;;9.00;97742.00;;;;4990908;28;20207;-66
2022/03/25 07:44:39;;;;;;;16.03;6.93;;;;;9.20;97739.00;;;;4991315;28;20210;-66
2022/03/25 07:47:29;;;;;;;9.83;6.70;;;;;9.40;97750.00;;;;4989942;28;20726;-66
2022/03/25 07:50:19;;;;;;;12.00;6.20;;;;;9.40;97750.00;;;;4990942;28;20214;-66
2022/03/25 07:53:09;;;;;;;11.03;6.70;;;;;9.50;97751.00;;;;4990221;28;20575;-66
2022/03/25 07:55:58;;;;;;;10.23;6.53;;;;;9.90;97752.00;;;;4982925;28;20248;-66
2022/03/25 07:58:47;;;;;;;12.30;5.97;;;;;9.90;97748.00;;;;4982901;28;20676;-66
2022/03/25 08:01:38;;;;;;;12.17;6.33;;;;;10.20;97755.00;;;;4986456;28;20583;-66
2022/03/25 08:04:27;;;;;;;11.27;7.13;;;;;10.30;97755.00;;;;4985560;28;20200;-66
2022/03/25 08:07:16;;;;;;;10.33;6.57;;;;;10.70;97749.00;;;;4981989;28;20225;-66
2022/03/25 08:10:06;;;;;;;9.70;6.37;;;;;10.80;97747.00;;;;4986319;28;20206;-65
2022/03/25 08:12:56;;;;;;;9.03;6.17;;;;;11.00;97747.00;;;;4985288;28;20583;-64
2022/03/25 08:15:45;;;;;;;11.83;6.67;;;;;10.90;97750.00;;;;4984241;28;20235;-64
2022/03/25 08:18:36;;;;;;;8.87;6.73;;;;;11.10;97750.00;;;;4978985;28;20556;-66
2022/03/25 08:21:25;;;;;;;11.20;6.70;;;;;11.30;97753.00;;;;4989759;28;20206;-65
2022/03/25 08:30:27;;;;;;;11.97;6.67;;;;;12.00;97750.00;;;;4989217;28;20213;-65
2022/03/25 08:33:16;;;;;;;10.40;6.77;;;;;12.40;97758.00;;;;4986399;28;20202;-66
2022/03/25 08:36:07;;;;;;;12.73;6.33;;;;;12.60;97760.00;;;;4986052;28;20726;-66
2022/03/25 08:38:56;;;;;;;8.80;5.80;;;;;12.80;97754.00;;;;4988651;28;20203;-65
2022/03/25 08:41:45;;;;;;;12.87;6.77;;;;;13.20;97761.00;;;;4984883;28;20215;-66
2022/03/25 08:44:34;;;;;;;12.03;6.27;;;;;13.40;97745.00;;;;4983812;28;20230;-66
2022/03/25 08:47:23;;;;;;;11.27;6.33;;;;;13.60;97760.00;;;;4988824;28;20234;-65
2022/03/25 08:50:13;;;;;;;10.93;6.27;;;;;13.90;97752.00;;;;4988478;28;20218;-65
2022/03/25 08:53:05;;;;;;;20.53;10.57;;;;;14.20;97756.00;;;;4985979;28;20210;-65
2022/03/25 08:55:54;;;;;;;8.23;6.77;;;;;14.40;97755.00;;;;4981737;28;20226;-65
2022/03/25 08:58:44;;;;;;;12.03;6.73;;;;;14.60;97757.00;;;;4982142;28;20210;-66
2022/03/25 09:01:33;;;;;;;14.50;7.57;;;;;15.00;97761.00;;;;4987462;28;20211;-65
2022/03/25 09:04:22;;;;;;;14.83;9.63;;;;;15.20;97748.00;;;;4992013;28;20346;-65
2022/03/25 09:07:11;;;;;;;10.83;8.93;;;;;15.30;97753.00;;;;4990313;28;20252;-65
2022/03/25 09:10:02;;;;;;;15.40;10.50;;;;;15.50;97749.00;;;;4987762;28;20704;-66
2022/03/25 09:12:51;;;;;;;15.73;10.30;;;;;15.70;97747.00;;;;4992042;28;20218;-65
2022/03/25 09:15:40;;;;;;;18.83;12.10;;;;;15.90;97743.00;;;;4993233;28;20203;-66
2022/03/25 09:18:29;;;;;;;13.37;10.13;;;;;16.10;97740.00;;;;4990042;28;20199;-66
2022/03/25 09:21:18;;;;;;;19.27;10.57;;;;;16.40;97752.00;;;;4986933;28;20213;-66
2022/03/25 09:24:07;;;;;;;16.93;12.03;;;;;16.30;97741.00;;;;4986639;28;20237;-66
2022/03/25 09:26:57;;;;;;;17.70;11.17;;;;;16.70;97745.00;;;;4993176;28;20707;-66
2022/03/25 09:29:46;;;;;;;15.07;11.17;;;;;16.90;97737.00;;;;4990887;28;20219;-65
2022/03/25 09:32:35;;;;;;;18.10;12.47;;;;;16.90;97736.00;;;;4992710;28;20199;-65
2022/03/25 09:35:25;;;;;;;17.10;13.90;;;;;16.70;97741.00;;;;4989429;28;20194;-65
2022/03/25 09:38:14;;;;;;;18.13;14.10;;;;;16.90;97736.00;;;;4989262;28;20210;-66
2022/03/25 09:41:06;;;;;;;19.50;14.93;;;;;17.00;97740.00;;;;4987380;28;20583;-67
2022/03/25 09:43:56;;;;;;;19.27;14.77;;;;;17.50;97742.00;;;;4989168;28;20206;-66
2022/03/25 09:46:46;;;;;;;25.33;15.10;;;;;17.70;97732.00;;;;4989516;28;20223;-65
2022/03/25 09:49:35;;;;;;;21.80;13.67;;;;;17.40;97728.00;;;;4992074;28;20225;-66
2022/03/25 09:52:26;;;;;;;20.23;14.70;;;;;17.70;97733.00;;;;4994112;28;20210;-68
2022/03/25 09:55:31;;;;;;;22.83;16.83;;;;;18.50;97731.00;;;;4990036;28;20579;-66
2022/03/25 09:58:20;;;;;;;22.87;15.47;;;17.00;45.90;18.50;97726.00;;;;4981773;28;20229;-66
2022/03/25 10:01:10;;;;;;;23.23;16.77;;;17.10;45.60;18.00;97721.00;;;;4985493;28;20206;-66
2022/03/25 10:03:59;;;;;;;23.33;17.23;;;17.20;44.80;18.10;97718.00;;;;4989779;28;20195;-66
2022/03/25 10:06:48;;;;;;;22.47;16.07;;;17.40;44.00;18.80;97711.00;;;;4987057;28;20227;-65
2022/03/25 10:09:36;;;;;;;25.03;15.97;;;17.50;44.10;19.20;97720.00;;;;4986515;28;20214;-66
2022/03/25 10:12:27;;;;;;;24.53;14.73;;;17.70;44.40;19.50;97720.00;;;;4989515;28;20204;-66
2022/03/25 10:15:20;;;;;;;23.40;16.40;;;17.80;44.50;19.10;97701.00;;;;4989170;28;20203;-66
2022/03/25 10:18:10;;;;;;;23.37;16.03;;;18.00;43.80;18.90;97705.00;;;;4988942;28;20207;-66
2022/03/25 10:20:59;;;;;;;22.93;16.20;;;18.10;43.30;19.30;97703.00;;;;4992385;28;20198;-67
2022/03/25 10:23:48;;;;;;;28.90;17.83;;;18.20;43.70;19.30;97697.00;;;;4987773;28;20206;-67
2022/03/25 10:26:37;;;;;;;19.90;14.87;;;18.40;42.80;18.80;97695.00;;;;4986592;28;20305;-67
2022/03/25 10:29:26;;;;;;;21.47;15.90;;;18.20;41.70;17.80;97684.00;;;;4990238;28;20202;-67
2022/03/25 10:32:18;;;;;;;21.47;16.50;;;18.10;41.80;19.20;97691.00;;;;4984562;28;20226;-66
2022/03/25 10:35:12;;;;;;;21.73;15.80;;;18.10;43.40;20.10;97682.00;;;;4984899;28;20321;-67
2022/03/25 10:38:00;;;;;;;20.77;15.47;;;18.30;42.00;20.10;97683.00;;;;4986828;28;20494;-67
2022/03/25 10:40:51;;;;;;;22.03;16.43;;;18.50;41.50;20.80;97683.00;;;;4992880;28;20285;-67
2022/03/25 10:43:56;;;;;;;23.13;16.00;;;18.80;42.30;19.10;97671.00;;;;4986928;28;20203;-67
2022/03/25 10:46:49;;;;;;;28.93;16.53;;;18.90;40.20;20.00;97675.00;;;;4993567;28;20227;-67
2022/03/25 10:49:43;;;;;;;22.93;15.73;;;18.90;41.20;20.90;97674.00;;;;4986915;28;20589;-66
2022/03/25 10:52:35;;;;;;;20.57;16.70;;;19.10;41.00;20.50;97676.00;;;;4983795;28;20202;-66
2022/03/25 10:55:25;;;;;;;24.90;15.87;;;19.20;39.50;20.20;97672.00;;;;4989916;28;20234;-66
2022/03/25 10:58:13;;;;;;;17.63;14.20;;;19.40;39.70;20.90;97662.00;;;;4989396;28;20572;-66
2022/03/25 11:01:03;;;;;;;19.63;14.93;;;19.60;39.20;21.80;97666.00;;;;4977133;28;20198;-67
2022/03/25 11:03:53;;;;;;;21.37;15.90;;;19.80;41.10;21.80;97660.00;;;;4985091;28;20214;-66
2022/03/25 11:06:43;;;;;;;20.40;15.17;;;20.20;39.60;22.80;97655.00;;;;4985037;28;20484;-67
2022/03/25 11:09:33;;;;;;;20.03;16.27;;;20.60;39.30;22.80;97667.00;;;;4985156;28;20559;-67
2022/03/25 11:12:23;;;;;;;25.10;17.10;;;21.00;38.70;23.20;97650.00;;;;4988094;28;20722;-67
2022/03/25 11:15:14;;;;;;;25.03;16.93;;;21.30;38.90;22.90;97646.00;;;;4986176;28;20585;-64
2022/03/25 11:18:03;;;;;;;21.27;17.30;;;21.40;37.70;23.60;97644.00;;;;4985959;28;20214;-65
2022/03/25 11:20:53;;;;;;;25.10;15.80;;;21.70;38.40;23.20;97640.00;;;;4983222;28;20223;-64
2022/03/25 11:23:48;;;;;;;22.47;17.17;;;22.00;37.60;23.50;97639.00;;;;4982128;28;20211;-65
2022/03/25 11:26:43;;;;;;;20.50;15.93;;;22.30;37.70;23.40;97638.00;;;;4983615;28;20742;-65
2022/03/25 11:29:34;;;;;;;24.43;17.10;;;22.60;37.30;24.20;97631.00;;;;4983927;28;20214;-65
2022/03/25 11:32:23;;;;;;;24.00;18.43;;;22.60;36.70;24.50;97630.00;;;;4981540;28;20231;-65
2022/03/25 11:35:21;;;;;;;24.83;18.07;;;22.90;36.50;23.70;97632.00;;;;4979619;28;20207;-66
2022/03/25 11:38:20;;;;;;;24.37;16.20;;;23.00;36.00;24.60;97622.00;;;;4984346;28;20204;-67
2022/03/25 11:41:23;;;;;;;22.03;17.10;;;23.20;36.00;25.10;97620.00;;;;4986124;28;20213;-66
2022/03/25 11:44:25;;;;;;;20.37;17.27;;;23.40;36.00;23.30;97617.00;;;;4989318;28;20208;-66
2022/03/25 11:47:18;;;;;;;20.87;16.43;;;23.50;35.80;24.80;97616.00;;;;4988208;28;20720;-67
2022/03/25 11:50:27;;;;;;;19.37;15.70;;;23.50;35.80;25.80;97609.00;;;;4985386;28;20220;-66
2022/03/25 11:53:33;;;;;;;20.90;15.73;;;23.70;36.60;26.30;97605.00;;;;4983573;28;20201;-66
2022/03/25 11:56:22;;;;;;;21.73;16.13;;;24.00;35.70;25.50;97610.00;;;;5007286;23;20736;-83
2022/03/25 11:59:11;;;;;;;22.00;16.80;;;24.30;35.20;25.90;97593.00;;;;5047834;28;20201;-83
2022/03/25 12:02:31;;;;;;;17.67;15.63;;;24.40;35.30;26.90;97599.00;;;;5052627;28;20217;-85
2022/03/25 12:05:38;;;;;;;22.13;15.87;;;24.60;35.40;25.70;97584.00;;;;5057654;28;20632;-83
2022/03/25 12:08:29;;;;;;;22.87;16.57;;;25.20;33.40;25.60;97580.00;;;;5058897;28;20690;-83
2022/03/25 12:11:18;;;;;;;23.93;16.70;;;25.10;33.60;25.20;97576.00;;;;5061654;28;20680;-83
2022/03/25 12:14:08;;;;;;;22.77;17.17;;;25.20;34.30;25.00;97567.00;;;;5059314;28;20205;-83
2022/03/25 12:17:06;;;;;;;20.40;16.43;;;25.00;33.40;26.20;97566.00;;;;5060632;28;20229;-85
2022/03/25 12:19:56;;;;;;;26.60;17.00;;;24.90;34.40;26.30;97565.00;;;;5058960;28;20209;-84
2022/03/25 12:22:45;;;;;;;20.10;17.13;;;24.90;32.90;24.70;97561.00;;;;5060205;28;20223;-83
2022/03/25 12:25:34;;;;;;;21.80;15.97;;;24.80;32.80;25.50;97552.00;;;;5058136;28;20222;-83
2022/03/25 12:28:26;;;;;;;21.80;16.37;;;24.40;33.50;25.20;97553.00;;;;5057671;28;20228;-83
2022/03/25 12:31:15;;;;;;;20.07;16.07;;;24.60;33.70;25.40;97553.00;;;;5058534;28;20214;-83
2022/03/25 12:34:06;;;;;;;21.40;16.10;;;24.90;32.80;27.30;97554.00;;;;5066368;28;20556;-83
2022/03/25 12:37:01;;;;;;;20.20;16.20;;;25.10;34.00;26.70;97556.00;;;;5067741;28;20230;-83
2022/03/25 12:39:50;;;;;;;18.23;15.30;;;25.30;33.00;26.40;97548.00;;;;5061165;28;20280;-82
2022/03/25 12:42:39;;;;;;;18.33;15.33;;;25.40;32.50;26.70;97538.00;;;;5062987;28;20222;-83
2022/03/25 12:45:31;;;;;;;19.60;14.57;;;25.70;32.50;27.20;97538.00;;;;5070851;28;20765;-83
2022/03/25 12:48:23;;;;;;;20.02;15.23;;;25.70;32.60;27.90;97539.00;;;;5063963;28;20736;-83
2022/03/25 12:51:16;;;;;;;16.98;15.10;;;25.90;33.30;27.80;97533.00;;;;5073614;28;20198;-83
2022/03/25 12:54:17;;;;;;;18.25;15.80;;;26.20;32.90;24.60;97517.00;;;;5066398;28;20216;-84
2022/03/25 12:57:06;;;;;;;18.50;15.33;;;26.00;31.00;25.50;97523.00;;;;5026342;22;20301;-67
2022/03/25 13:00:13;;;;;;;21.13;15.87;;;25.40;31.70;26.50;97526.00;;;;4988390;28;20723;-69
2022/03/25 13:03:02;;;;;;;18.50;15.40;;;25.20;32.70;26.00;97516.00;;;;4981481;28;20223;-69
2022/03/25 13:05:52;;;;;;;18.13;16.13;;;25.30;32.30;27.40;97529.00;;;;4970499;28;20230;-69
2022/03/25 13:08:41;;;;;;;18.13;15.33;;;25.50;33.40;25.20;97516.00;;;;5023621;23;20236;-66
2022/03/25 13:11:31;;;;;;;18.07;14.80;;;25.80;31.60;26.60;97511.00;;;;5009066;28;20212;-64
2022/03/25 13:14:21;;;;;;;17.77;15.23;;;26.00;32.10;28.00;97519.00;;;;5009626;28;20199;-66
2022/03/25 13:17:09;;;;;;;18.75;14.55;;;26.00;32.10;27.50;97510.00;;;;5011084;28;20236;-65
2022/03/25 13:20:16;;;;;;;17.42;14.80;;;26.30;31.70;27.60;97504.00;;;;4995599;28;20228;-65
2022/03/25 13:23:08;;;;;;;19.15;15.73;;;26.40;31.90;28.20;97501.00;;;;4995378;28;20549;-66
2022/03/25 13:26:01;;;;;;;19.08;14.45;;;26.50;31.70;25.30;97493.00;;;;5001315;28;20674;-66
2022/03/25 13:28:55;;;;;;;19.85;15.43;;;26.60;30.50;26.70;97485.00;;;;4999936;28;20235;-66
2022/03/25 13:31:50;;;;;;;16.77;14.15;;;26.40;31.40;26.10;97491.00;;;;4999738;28;20210;-66
2022/03/25 13:34:39;;;;;;;17.70;15.80;;;26.20;31.50;24.30;97483.00;;;;4996795;28;20200;-67
2022/03/25 13:37:28;;;;;;;19.38;16.10;;;25.80;30.80;25.70;97487.00;;;;4996213;28;20235;-66
2022/03/25 13:40:32;;;;;;;20.90;17.00;;;25.50;31.00;27.20;97499.00;;;;5000120;28;20201;-66
2022/03/25 13:43:23;;;;;;;19.95;15.52;;;25.70;32.00;26.70;97485.00;;;;5001742;28;20204;-66
2022/03/25 13:46:21;;;;;;;20.67;15.35;;;26.00;31.30;27.20;97491.00;;;;4999374;28;20219;-65